LHPP/PEV METAR and TAF weather

Enter ICAO airport designator
Station Type Date Time Source
LHPP METAR 2022/05/24 11:15 UTC NOAA

LHPP 241115Z AUTO VRB03KT CAVOK 26/13 Q1008


Station Type Date Time Source
LHPP Decoded METAR 2022/05/24 11:15 UTC NOAA

Pecs / Pogany, Hungary (LHPP) 46-06N 018-14E 203M
May 24, 2022 - 07:15 AM EDT / 2022.05.24 1115 UTC
Wind: Variable at 3 MPH (3 KT):0
Visibility: greater than 7 mile(s):0
Temperature: 78 F (26 C)
Dew Point: 55 F (13 C)
Relative Humidity: 44%
Pressure (altimeter): 29.77 in. Hg (1008 hPa)
ob: LHPP 241115Z AUTO VRB03KT CAVOK 26/13 Q1008
cycle: 11

Station Type Date Time Source
LHPP TAF 2017/08/21 15:50 UTC NOAA

TAF LHPP 211700Z 2115/2214 CNL

Example: see airport list